Time;durP1;ratioP1;P1;durP2;ratioP2;P2;SDS_P1;SDS_P2;PMS_P1;PMS_P2;Temp;Humidity;BMP_temperature;BMP_pressure;BME280_temperature;BME280_humidity;BME280_pressure;Samples;Min_cycle;Max_cycle;Signal;HPM_P1;HPM_P2
2024/04/18 00:02:19;;;;;;;8.65;2.28;;;;;;;;;;5450956;26;20003;-79
2024/04/18 00:04:45;;;;;;;8.45;2.10;;;;;;;;;;5453305;26;20003;-79
2024/04/18 00:07:11;;;;;;;3.42;2.05;;;;;;;;;;5451048;26;19999;-80
2024/04/18 00:09:37;;;;;;;5.97;2.20;;;;;;;;;;5451292;26;20015;-78
2024/04/18 00:12:03;;;;;;;5.93;2.65;;;;;;;;;;5453055;26;20014;-78
2024/04/18 00:14:29;;;;;;;5.68;2.63;;;;;;;;;;5452846;26;19999;-78
2024/04/18 00:16:55;;;;;;;4.35;2.33;;;;;;;;;;5451110;26;20017;-78
2024/04/18 00:19:21;;;;;;;5.35;2.33;;;;;;;;;;5450910;26;19998;-80
2024/04/18 00:21:48;;;;;;;5.15;2.63;;;;;;;;;;5450999;26;19998;-80
2024/04/18 00:24:14;;;;;;;6.78;2.80;;;;;;;;;;5450916;26;20006;-80
2024/04/18 00:26:40;;;;;;;4.95;2.65;;;;;;;;;;5450372;26;19999;-79
2024/04/18 00:29:05;;;;;;;4.97;2.60;;;;;;;;;;5450935;26;20457;-78
2024/04/18 00:31:31;;;;;;;5.53;2.33;;;;;;;;;;5452856;26;19999;-77
2024/04/18 00:33:57;;;;;;;6.28;2.67;;;;;;;;;;5450991;26;19999;-79
2024/04/18 00:36:24;;;;;;;6.13;2.83;;;;;;;;;;5452398;26;19999;-79
2024/04/18 00:38:50;;;;;;;4.40;2.63;;;;;;;;;;5452678;26;20079;-79
2024/04/18 00:41:16;;;;;;;4.82;2.30;;;;;;;;;;5450566;26;20003;-80
2024/04/18 00:43:43;;;;;;;6.68;2.42;;;;;;;;;;5452674;26;20339;-80
2024/04/18 00:46:09;;;;;;;7.80;2.53;;;;;;;;;;5452342;26;20010;-80
2024/04/18 00:48:35;;;;;;;6.75;3.15;;;;;;;;;;5450728;26;20003;-78
2024/04/18 00:51:02;;;;;;;5.22;2.38;;;;;;;;;;5452845;26;20015;-79
2024/04/18 00:53:28;;;;;;;5.82;2.38;;;;;;;;;;5452745;26;20427;-79
2024/04/18 00:55:55;;;;;;;5.30;2.58;;;;;;;;;;5451055;26;20003;-79
2024/04/18 00:58:21;;;;;;;6.70;2.65;;;;;;;;;;5452430;26;19999;-79
2024/04/18 01:00:47;;;;;;;5.95;2.40;;;;;;;;;;5450868;26;19999;-79
2024/04/18 01:03:13;;;;;;;6.00;2.38;;;;;;;;;;5450543;26;20003;-78
2024/04/18 01:05:39;;;;;;;7.20;2.50;;;;;;;;;;5450823;26;20006;-78
2024/04/18 01:08:06;;;;;;;5.20;2.15;;;;;;;;;;5452714;26;20076;-78
2024/04/18 01:10:32;;;;;;;7.30;2.47;;;;;;;;;;5452247;26;20495;-79
2024/04/18 01:12:58;;;;;;;5.78;2.08;;;;;;;;;;5452265;26;20415;-79
2024/04/18 01:15:26;;;;;;;4.57;2.60;;;;;;;;;;5450302;26;20010;-78
2024/04/18 01:17:52;;;;;;;6.95;2.38;;;;;;;;;;5450398;26;20014;-79
2024/04/18 01:20:18;;;;;;;5.72;2.38;;;;;;;;;;5450155;26;20003;-79
2024/04/18 01:22:44;;;;;;;5.50;2.22;;;;;;;;;;5452072;26;20014;-79
2024/04/18 01:25:10;;;;;;;7.25;2.35;;;;;;;;;;5450009;26;20002;-79
2024/04/18 01:27:36;;;;;;;5.95;2.20;;;;;;;;;;5452055;26;20411;-79
2024/04/18 01:30:02;;;;;;;6.82;2.42;;;;;;;;;;5450079;26;20010;-79
2024/04/18 01:32:31;;;;;;;6.15;2.17;;;;;;;;;;5450031;26;20003;-78
2024/04/18 01:34:57;;;;;;;5.25;2.28;;;;;;;;;;5452246;26;20068;-78
2024/04/18 01:37:23;;;;;;;4.53;2.22;;;;;;;;;;5448742;26;20003;-78
2024/04/18 01:39:50;;;;;;;7.40;2.30;;;;;;;;;;5450255;26;20018;-79
2024/04/18 01:42:16;;;;;;;6.05;2.40;;;;;;;;;;5451765;26;20003;-79
2024/04/18 01:44:43;;;;;;;7.55;2.30;;;;;;;;;;5452051;26;20066;-78
2024/04/18 01:47:09;;;;;;;7.10;2.15;;;;;;;;;;5452023;26;19998;-79
2024/04/18 01:49:35;;;;;;;6.25;2.25;;;;;;;;;;5451300;26;19999;-78
2024/04/18 01:52:01;;;;;;;7.35;2.95;;;;;;;;;;5449734;26;19998;-79
2024/04/18 01:54:27;;;;;;;6.78;2.30;;;;;;;;;;5449319;26;20026;-79
2024/04/18 01:56:53;;;;;;;5.55;2.10;;;;;;;;;;5449715;26;20018;-78
2024/04/18 01:59:19;;;;;;;7.53;2.28;;;;;;;;;;5449313;26;20457;-79
2024/04/18 02:01:45;;;;;;;7.30;2.42;;;;;;;;;;5451412;26;19999;-79
2024/04/18 02:04:11;;;;;;;6.47;3.03;;;;;;;;;;5449579;26;20003;-79
2024/04/18 02:06:37;;;;;;;8.43;2.45;;;;;;;;;;5449118;26;20298;-79
2024/04/18 02:09:03;;;;;;;10.98;2.88;;;;;;;;;;5449469;26;20010;-79
2024/04/18 02:11:29;;;;;;;7.30;3.30;;;;;;;;;;5449003;26;20434;-79
2024/04/18 02:13:55;;;;;;;8.27;2.33;;;;;;;;;;5451476;26;20003;-79
2024/04/18 02:16:21;;;;;;;5.30;2.75;;;;;;;;;;5450914;26;20010;-79
2024/04/18 02:18:47;;;;;;;6.50;3.08;;;;;;;;;;5449288;26;20078;-79
2024/04/18 02:21:13;;;;;;;6.28;2.50;;;;;;;;;;5449332;26;20395;-79
2024/04/18 02:23:39;;;;;;;8.38;2.83;;;;;;;;;;5449153;26;20448;-79
2024/04/18 02:26:05;;;;;;;8.85;2.97;;;;;;;;;;5451021;26;20075;-79
2024/04/18 02:28:31;;;;;;;4.88;2.25;;;;;;;;;;5450655;26;20063;-79
2024/04/18 02:31:03;;;;;;;5.78;2.70;;;;;;;;;;5449214;26;20003;-79
2024/04/18 02:33:29;;;;;;;8.25;2.42;;;;;;;;;;5448799;26;20312;-79
2024/04/18 02:35:55;;;;;;;8.75;3.05;;;;;;;;;;5448960;26;20337;-79
2024/04/18 02:38:21;;;;;;;8.68;3.03;;;;;;;;;;5448771;26;20002;-79
2024/04/18 02:40:47;;;;;;;7.40;2.78;;;;;;;;;;5449007;26;20009;-79
2024/04/18 02:43:13;;;;;;;7.60;2.70;;;;;;;;;;5449028;26;20003;-79
2024/04/18 02:45:39;;;;;;;5.78;2.83;;;;;;;;;;5450597;26;20017;-79
2024/04/18 02:48:05;;;;;;;8.32;3.40;;;;;;;;;;5451189;26;20009;-79
2024/04/18 02:50:31;;;;;;;8.55;3.08;;;;;;;;;;5454606;26;20338;-80
2024/04/18 02:52:57;;;;;;;9.02;3.15;;;;;;;;;;5452764;26;20003;-80
2024/04/18 02:55:23;;;;;;;8.43;2.65;;;;;;;;;;5454399;26;20003;-80
2024/04/18 02:57:49;;;;;;;5.70;2.72;;;;;;;;;;5452805;26;20002;-78
2024/04/18 03:00:15;;;;;;;8.13;2.97;;;;;;;;;;5454724;26;19999;-78
2024/04/18 03:02:41;;;;;;;7.55;3.03;;;;;;;;;;5454473;26;19998;-78
2024/04/18 03:05:07;;;;;;;9.40;2.90;;;;;;;;;;5454652;26;20013;-79
2024/04/18 03:07:33;;;;;;;8.93;3.40;;;;;;;;;;5454208;26;20007;-79
2024/04/18 03:09:59;;;;;;;7.50;3.30;;;;;;;;;;5452483;26;20338;-79
2024/04/18 03:12:25;;;;;;;8.10;3.22;;;;;;;;;;5452190;26;20085;-79
2024/04/18 03:14:51;;;;;;;7.45;3.45;;;;;;;;;;5453983;26;20341;-79
2024/04/18 03:17:17;;;;;;;5.80;2.70;;;;;;;;;;5452323;26;20057;-79
2024/04/18 03:19:43;;;;;;;8.63;2.70;;;;;;;;;;5452315;26;20005;-79
2024/04/18 03:22:09;;;;;;;8.32;2.92;;;;;;;;;;5452308;26;20013;-79
2024/04/18 03:24:35;;;;;;;10.90;3.15;;;;;;;;;;5453834;26;20013;-79
2024/04/18 03:27:02;;;;;;;9.18;3.05;;;;;;;;;;5452372;26;20006;-79
2024/04/18 03:29:27;;;;;;;9.60;3.40;;;;;;;;;;5454019;26;19999;-79
2024/04/18 03:31:53;;;;;;;8.55;3.55;;;;;;;;;;5454140;26;20324;-79
2024/04/18 03:34:20;;;;;;;8.07;3.22;;;;;;;;;;5451969;26;20007;-79
2024/04/18 03:36:52;;;;;;;11.63;3.80;;;;;;;;;;5452599;26;19998;-79
2024/04/18 03:39:20;;;;;;;9.43;3.92;;;;;;;;;;5452790;26;19998;-79
2024/04/18 03:41:47;;;;;;;6.75;2.80;;;;;;;;;;5452290;26;20007;-78
2024/04/18 03:44:13;;;;;;;9.10;3.10;;;;;;;;;;5454508;26;20056;-80
2024/04/18 03:46:39;;;;;;;6.38;3.20;;;;;;;;;;5452093;26;20069;-81
2024/04/18 03:49:07;;;;;;;10.65;3.42;;;;;;;;;;5452066;26;20370;-80
2024/04/18 03:51:33;;;;;;;4.97;2.45;;;;;;;;;;5452189;26;20014;-81
2024/04/18 03:53:59;;;;;;;8.60;3.50;;;;;;;;;;5451283;26;19995;-80
2024/04/18 03:56:25;;;;;;;9.82;3.60;;;;;;;;;;5451517;26;20002;-80
2024/04/18 03:58:54;;;;;;;7.75;3.55;;;;;;;;;;5451612;26;20445;-81
2024/04/18 04:01:20;;;;;;;8.43;3.53;;;;;;;;;;5450472;26;19999;-80
2024/04/18 04:03:46;;;;;;;6.97;3.30;;;;;;;;;;5453543;26;20034;-79
2024/04/18 04:06:12;;;;;;;8.02;2.90;;;;;;;;;;5451721;26;20005;-78
2024/04/18 04:08:38;;;;;;;10.77;4.07;;;;;;;;;;5453551;26;20009;-79
2024/04/18 04:11:04;;;;;;;7.40;2.97;;;;;;;;;;5453266;26;20007;-78
2024/04/18 04:13:30;;;;;;;8.68;3.25;;;;;;;;;;5452706;26;19995;-79
2024/04/18 04:15:56;;;;;;;8.07;3.15;;;;;;;;;;5451250;26;20422;-80
2024/04/18 04:18:26;;;;;;;8.18;2.70;;;;;;;;;;5452811;26;19999;-79
2024/04/18 04:20:52;;;;;;;12.37;3.50;;;;;;;;;;5453053;26;19995;-79
2024/04/18 04:23:18;;;;;;;10.07;3.28;;;;;;;;;;5453449;26;19998;-79
2024/04/18 04:25:44;;;;;;;9.52;3.38;;;;;;;;;;5451123;26;19999;-81
2024/04/18 04:28:10;;;;;;;10.32;2.88;;;;;;;;;;5451475;26;20320;-80
2024/04/18 04:30:36;;;;;;;9.68;3.72;;;;;;;;;;5451299;26;20010;-79
2024/04/18 04:33:02;;;;;;;8.90;3.25;;;;;;;;;;5453881;26;20010;-80
2024/04/18 04:35:28;;;;;;;10.55;3.42;;;;;;;;;;5451807;26;20040;-79
2024/04/18 04:37:54;;;;;;;9.43;3.30;;;;;;;;;;5452752;26;20399;-79
2024/04/18 04:40:20;;;;;;;10.77;3.72;;;;;;;;;;5452786;26;20031;-79
2024/04/18 04:42:46;;;;;;;9.00;3.60;;;;;;;;;;5452651;26;20006;-79
2024/04/18 04:45:12;;;;;;;12.45;4.30;;;;;;;;;;5450798;26;20011;-78
2024/04/18 04:47:38;;;;;;;23.52;3.78;;;;;;;;;;5450246;26;19998;-79
2024/04/18 04:50:04;;;;;;;8.32;3.17;;;;;;;;;;5452345;26;19999;-78
2024/04/18 04:52:30;;;;;;;12.50;4.05;;;;;;;;;;5450649;26;20005;-79
2024/04/18 04:54:56;;;;;;;13.65;3.45;;;;;;;;;;5450800;26;19995;-78
2024/04/18 04:57:22;;;;;;;14.75;3.90;;;;;;;;;;5452573;26;20009;-78
2024/04/18 04:59:48;;;;;;;13.15;4.65;;;;;;;;;;5450664;26;19995;-78
2024/04/18 05:02:14;;;;;;;11.18;3.72;;;;;;;;;;5450724;26;20322;-79
2024/04/18 05:04:41;;;;;;;10.48;3.60;;;;;;;;;;5452161;26;19995;-78
2024/04/18 05:07:07;;;;;;;9.35;4.18;;;;;;;;;;5450352;26;19999;-80
2024/04/18 05:09:33;;;;;;;9.25;3.80;;;;;;;;;;5451808;26;20010;-79
2024/04/18 05:11:59;;;;;;;11.35;4.22;;;;;;;;;;5450261;26;19998;-79
2024/04/18 05:14:25;;;;;;;12.07;4.60;;;;;;;;;;5451922;26;20461;-79
2024/04/18 05:16:51;;;;;;;10.18;4.57;;;;;;;;;;5450313;26;19995;-80
2024/04/18 05:19:19;;;;;;;9.50;4.57;;;;;;;;;;5452244;26;19995;-79
2024/04/18 05:21:45;;;;;;;11.43;4.07;;;;;;;;;;5449814;26;20082;-80
2024/04/18 05:24:11;;;;;;;15.25;3.90;;;;;;;;;;5450265;26;19995;-80
2024/04/18 05:26:38;;;;;;;8.20;3.95;;;;;;;;;;5450086;26;20009;-80
2024/04/18 05:31:49;;;;;;;10.18;4.80;;;;;;;;;;5451727;26;20010;-80
2024/04/18 05:34:15;;;;;;;11.98;5.05;;;;;;;;;;5451872;26;20002;-80
2024/04/18 05:36:41;;;;;;;9.60;3.80;;;;;;;;;;5449665;26;20009;-80
2024/04/18 05:39:07;;;;;;;13.20;4.82;;;;;;;;;;5450102;26;20006;-80
2024/04/18 05:41:33;;;;;;;7.80;3.70;;;;;;;;;;5449721;26;19999;-80
2024/04/18 05:44:01;;;;;;;15.20;4.78;;;;;;;;;;5449824;26;20506;-79
2024/04/18 05:46:27;;;;;;;10.35;4.95;;;;;;;;;;5449446;26;20114;-79
2024/04/18 05:48:59;;;;;;;10.80;4.30;;;;;;;;;;5452038;26;20011;-80
2024/04/18 05:51:25;;;;;;;6.85;3.90;;;;;;;;;;5451891;26;20011;-80
2024/04/18 05:53:51;;;;;;;11.35;4.75;;;;;;;;;;5449863;26;20010;-81
2024/04/18 05:56:17;;;;;;;7.82;3.60;;;;;;;;;;5449860;26;19999;-79
2024/04/18 05:58:44;;;;;;;9.80;4.85;;;;;;;;;;5449854;26;19999;-79
2024/04/18 06:01:11;;;;;;;12.88;4.10;;;;;;;;;;5450269;26;20007;-80
2024/04/18 06:03:37;;;;;;;9.30;3.92;;;;;;;;;;5449660;26;20026;-80
2024/04/18 06:06:03;;;;;;;7.57;3.25;;;;;;;;;;5449668;26;20076;-79
2024/04/18 06:08:29;;;;;;;13.00;3.40;;;;;;;;;;5449325;26;20003;-79
2024/04/18 06:10:55;;;;;;;7.07;3.63;;;;;;;;;;5451398;26;19999;-79
2024/04/18 06:13:24;;;;;;;10.68;3.58;;;;;;;;;;5451416;26;19999;-79
2024/04/18 06:15:51;;;;;;;8.80;3.38;;;;;;;;;;5449024;26;20002;-79
2024/04/18 06:18:17;;;;;;;15.98;4.82;;;;;;;;;;5450981;26;19999;-80
2024/04/18 06:20:44;;;;;;;4.90;2.55;;;;;;;;;;5448977;26;20014;-79
2024/04/18 06:23:10;;;;;;;7.85;2.80;;;;;;;;;;5451871;26;20023;-79
2024/04/18 06:25:36;;;;;;;12.00;3.53;;;;;;;;;;5452852;26;20014;-79
2024/04/18 06:28:03;;;;;;;13.70;2.78;;;;;;;;;;5453075;26;20075;-79
2024/04/18 06:30:29;;;;;;;9.63;3.25;;;;;;;;;;5452402;26;19999;-77
2024/04/18 06:32:55;;;;;;;6.40;2.67;;;;;;;;;;5452672;26;20013;-78
2024/04/18 06:35:21;;;;;;;6.50;2.63;;;;;;;;;;5454289;26;20003;-79
2024/04/18 06:37:48;;;;;;;7.95;2.88;;;;;;;;;;5452217;26;20486;-78
2024/04/18 06:40:14;;;;;;;7.68;2.80;;;;;;;;;;5454482;26;20075;-78
2024/04/18 06:42:40;;;;;;;7.38;2.40;;;;;;;;;;5452227;26;20034;-79
2024/04/18 06:45:06;;;;;;;8.68;2.58;;;;;;;;;;5452536;26;20007;-78
2024/04/18 06:47:32;;;;;;;8.55;3.22;;;;;;;;;;5454006;26;20135;-78
2024/04/18 06:49:58;;;;;;;5.35;2.17;;;;;;;;;;5452520;26;20015;-79
2024/04/18 06:52:24;;;;;;;7.22;2.50;;;;;;;;;;5454569;26;20010;-79
2024/04/18 06:54:50;;;;;;;7.22;2.47;;;;;;;;;;5452115;26;20441;-79
2024/04/18 06:57:16;;;;;;;5.70;1.98;;;;;;;;;;5454439;26;20010;-79
2024/04/18 06:59:42;;;;;;;6.60;2.75;;;;;;;;;;5452211;26;20071;-79
2024/04/18 07:02:08;;;;;;;8.25;2.67;;;;;;;;;;5452621;26;20010;-79
2024/04/18 07:04:34;;;;;;;6.30;2.22;;;;;;;;;;5452330;26;20003;-79
2024/04/18 07:07:00;;;;;;;8.13;2.35;;;;;;;;;;5454147;26;20016;-79
2024/04/18 07:09:26;;;;;;;6.80;2.25;;;;;;;;;;5454479;26;20438;-79
2024/04/18 07:11:52;;;;;;;6.47;2.55;;;;;;;;;;5453909;26;20006;-79
2024/04/18 07:14:18;;;;;;;9.30;2.28;;;;;;;;;;5453994;26;20015;-78
2024/04/18 07:16:44;;;;;;;6.40;2.03;;;;;;;;;;5453729;26;20009;-79
2024/04/18 07:19:10;;;;;;;7.18;2.13;;;;;;;;;;5454130;26;20013;-79
2024/04/18 07:21:36;;;;;;;5.57;2.10;;;;;;;;;;5453667;26;20019;-79
2024/04/18 07:24:02;;;;;;;5.25;1.67;;;;;;;;;;5453859;26;20014;-79
2024/04/18 07:26:28;;;;;;;7.05;2.35;;;;;;;;;;5452024;26;19999;-79
2024/04/18 07:28:54;;;;;;;5.57;1.35;;;;;;;;;;5451916;26;20010;-79
2024/04/18 07:31:21;;;;;;;9.98;2.42;;;;;;;;;;5451983;26;20434;-79
2024/04/18 07:33:47;;;;;;;6.55;1.85;;;;;;;;;;5453243;26;20009;-79
2024/04/18 07:36:13;;;;;;;6.28;1.90;;;;;;;;;;5452337;26;20006;-79
2024/04/18 07:38:39;;;;;;;8.20;2.42;;;;;;;;;;5451348;26;20395;-79
2024/04/18 07:41:05;;;;;;;6.53;2.30;;;;;;;;;;5451855;26;20006;-79
2024/04/18 07:43:32;;;;;;;4.38;2.00;;;;;;;;;;5451725;26;20010;-79
2024/04/18 07:45:58;;;;;;;4.88;1.70;;;;;;;;;;5451763;26;20009;-78
2024/04/18 07:48:24;;;;;;;6.47;1.70;;;;;;;;;;5453519;26;20006;-79
2024/04/18 07:50:50;;;;;;;4.40;1.67;;;;;;;;;;5453092;26;19999;-78
2024/04/18 07:53:16;;;;;;;5.47;2.13;;;;;;;;;;5453513;26;20009;-78
2024/04/18 07:55:42;;;;;;;5.22;2.08;;;;;;;;;;5451224;26;20331;-78
2024/04/18 07:58:08;;;;;;;2.97;1.20;;;;;;;;;;5451437;26;19998;-79
2024/04/18 08:00:34;;;;;;;4.22;1.70;;;;;;;;;;5452943;26;20003;-79
2024/04/18 08:03:00;;;;;;;7.32;2.08;;;;;;;;;;5451604;26;20334;-78
2024/04/18 08:05:26;;;;;;;11.40;2.97;;;;;;;;;;5451610;26;20434;-79
2024/04/18 08:07:53;;;;;;;5.45;1.95;;;;;;;;;;5452998;26;20010;-79
2024/04/18 08:10:19;;;;;;;5.30;1.50;;;;;;;;;;5453746;26;20010;-78
2024/04/18 08:12:45;;;;;;;5.85;1.70;;;;;;;;;;5451183;26;20014;-79
2024/04/18 08:15:11;;;;;;;4.13;0.90;;;;;;;;;;5451534;26;20279;-79
2024/04/18 08:17:37;;;;;;;6.68;1.30;;;;;;;;;;5451191;26;20005;-79
2024/04/18 08:20:04;;;;;;;5.32;1.45;;;;;;;;;;5453445;26;20003;-79
2024/04/18 08:22:30;;;;;;;7.88;1.50;;;;;;;;;;5453139;26;19999;-79
2024/04/18 08:24:56;;;;;;;9.10;1.90;;;;;;;;;;5451108;26;20006;-79
2024/04/18 08:27:22;;;;;;;6.45;1.23;;;;;;;;;;5453427;26;19999;-79
2024/04/18 08:29:49;;;;;;;3.80;0.85;;;;;;;;;;5451014;26;20013;-80
2024/04/18 08:32:15;;;;;;;5.68;1.10;;;;;;;;;;5453220;26;19999;-79
2024/04/18 08:34:41;;;;;;;5.45;1.40;;;;;;;;;;5451033;26;20003;-79
2024/04/18 08:37:07;;;;;;;5.13;1.52;;;;;;;;;;5453162;26;20009;-79
2024/04/18 08:39:33;;;;;;;3.25;1.30;;;;;;;;;;5451343;26;19999;-79
2024/04/18 08:41:59;;;;;;;3.38;1.02;;;;;;;;;;5453066;26;20322;-80
2024/04/18 08:44:28;;;;;;;4.18;1.08;;;;;;;;;;5451223;26;20071;-80
2024/04/18 08:46:56;;;;;;;3.97;1.30;;;;;;;;;;5452013;26;19999;-79
2024/04/18 08:49:25;;;;;;;6.35;1.08;;;;;;;;;;5450778;26;19999;-79
2024/04/18 08:51:51;;;;;;;4.15;1.05;;;;;;;;;;5450772;26;20010;-79
2024/04/18 08:54:18;;;;;;;2.75;0.88;;;;;;;;;;5452496;26;20015;-80
2024/04/18 08:56:46;;;;;;;5.95;0.85;;;;;;;;;;5450311;26;20462;-79
2024/04/18 08:59:14;;;;;;;3.13;0.82;;;;;;;;;;5452432;26;20014;-79
2024/04/18 09:01:41;;;;;;;4.47;1.10;;;;;;;;;;5452115;26;20511;-80
2024/04/18 09:04:07;;;;;;;8.52;1.88;;;;;;;;;;5450588;26;20009;-80
2024/04/18 09:06:33;;;;;;;1.80;0.65;;;;;;;;;;5450710;26;19999;-79
2024/04/18 09:09:04;;;;;;;4.22;1.17;;;;;;;;;;5450300;26;20018;-79
2024/04/18 09:11:30;;;;;;;4.53;0.63;;;;;;;;;;5450713;26;20002;-79
2024/04/18 09:13:56;;;;;;;2.20;0.80;;;;;;;;;;5451208;26;20018;-79
2024/04/18 09:16:23;;;;;;;7.63;0.85;;;;;;;;;;5450459;26;20003;-79
2024/04/18 09:18:50;;;;;;;5.05;0.70;;;;;;;;;;5450090;26;20464;-79
2024/04/18 09:21:16;;;;;;;7.03;1.02;;;;;;;;;;5450541;26;20015;-80
2024/04/18 09:23:42;;;;;;;3.88;0.70;;;;;;;;;;5451939;26;20014;-80
2024/04/18 09:26:09;;;;;;;4.03;0.80;;;;;;;;;;5450363;26;20362;-79
2024/04/18 09:28:35;;;;;;;2.28;0.82;;;;;;;;;;5451878;26;20100;-79
2024/04/18 09:31:01;;;;;;;3.65;0.70;;;;;;;;;;5449870;26;20415;-79
2024/04/18 09:33:27;;;;;;;1.77;0.70;;;;;;;;;;5450180;26;20039;-79
2024/04/18 09:35:59;;;;;;;3.33;0.70;;;;;;;;;;5449661;26;20103;-79
2024/04/18 09:38:26;;;;;;;5.70;0.70;;;;;;;;;;5452144;26;19999;-80
2024/04/18 09:40:55;;;;;;;2.85;1.00;;;;;;;;;;5449753;26;20369;-80
2024/04/18 09:43:21;;;;;;;4.68;0.88;;;;;;;;;;5450238;26;20326;-80
2024/04/18 09:46:13;;;;;;;2.10;0.60;;;;;;;;;;5449733;26;20047;-80
2024/04/18 09:48:39;;;;;;;2.40;0.70;;;;;;;;;;5447254;26;19999;-80
2024/04/18 09:51:06;;;;;;;3.63;0.93;;;;;;;;;;5449629;26;19995;-80
2024/04/18 09:53:32;;;;;;;5.18;1.10;;;;;;;;;;5449669;26;20368;-80
2024/04/18 09:56:02;;;;;;;5.38;0.85;;;;;;;;;;5449418;26;20010;-79
2024/04/18 09:58:28;;;;;;;3.25;1.02;;;;;;;;;;5448583;26;19999;-80
2024/04/18 10:00:56;;;;;;;3.90;1.08;;;;;;;;;;5451409;26;20342;-80
2024/04/18 10:03:24;;;;;;;3.85;0.88;;;;;;;;;;5449639;26;20009;-80
2024/04/18 10:05:51;;;;;;;4.85;0.90;;;;;;;;;;5449118;26;19995;-80
2024/04/18 10:08:19;;;;;;;2.88;0.85;;;;;;;;;;5451441;26;20124;-80
2024/04/18 10:10:46;;;;;;;4.75;1.20;;;;;;;;;;5449279;26;20072;-81
2024/04/18 10:13:12;;;;;;;2.65;0.80;;;;;;;;;;5449835;26;20013;-80
2024/04/18 10:15:38;;;;;;;3.10;1.25;;;;;;;;;;5449525;26;20191;-80
2024/04/18 10:18:19;;;;;;;2.15;0.90;;;;;;;;;;5449223;26;20006;-81
2024/04/18 10:20:46;;;;;;;4.90;0.90;;;;;;;;;;5449122;26;20032;-81
2024/04/18 10:23:13;;;;;;;2.90;0.98;;;;;;;;;;5449242;26;19999;-80
2024/04/18 10:25:40;;;;;;;3.05;0.63;;;;;;;;;;5451085;26;20002;-80
2024/04/18 10:28:35;;;;;;;8.07;1.58;;;;;;;;;;5448942;26;20039;-80
2024/04/18 10:31:05;;;;;;;2.30;0.70;;;;;;;;;;5441287;26;20050;-80
2024/04/18 10:33:33;;;;;;;3.23;0.70;;;;;;;;;;5449978;26;20015;-80
2024/04/18 10:35:59;;;;;;;3.42;0.95;;;;;;;;;;5449072;26;19995;-80
2024/04/18 10:38:26;;;;;;;2.92;0.60;;;;;;;;;;5449106;26;20010;-80
2024/04/18 10:41:01;;;;;;;2.03;0.60;;;;;;;;;;5450467;26;20003;-80
2024/04/18 10:43:27;;;;;;;4.10;0.90;;;;;;;;;;5448939;26;19998;-80
2024/04/18 10:45:55;;;;;;;4.45;1.10;;;;;;;;;;5450358;26;19998;-79
2024/04/18 10:48:22;;;;;;;4.85;1.17;;;;;;;;;;5450581;26;20404;-80
2024/04/18 10:50:51;;;;;;;3.08;0.70;;;;;;;;;;5419010;26;20013;-80
2024/04/18 10:53:18;;;;;;;3.28;1.02;;;;;;;;;;5450663;26;20460;-80
2024/04/18 10:55:44;;;;;;;2.20;0.77;;;;;;;;;;5448641;26;19999;-80
2024/04/18 10:58:15;;;;;;;3.78;0.95;;;;;;;;;;5448608;26;20130;-80
2024/04/18 11:00:44;;;;;;;3.45;0.90;;;;;;;;;;5448896;26;20013;-80
2024/04/18 11:03:11;;;;;;;2.78;0.60;;;;;;;;;;5450519;26;20048;-80
2024/04/18 11:05:37;;;;;;;2.85;0.63;;;;;;;;;;5448553;26;20011;-80
2024/04/18 11:08:04;;;;;;;3.97;0.80;;;;;;;;;;5450140;26;19999;-80
2024/04/18 11:10:31;;;;;;;6.07;0.90;;;;;;;;;;5450986;26;20013;-80
2024/04/18 11:12:57;;;;;;;3.00;1.00;;;;;;;;;;5453829;26;20015;-79
2024/04/18 11:15:24;;;;;;;3.28;0.60;;;;;;;;;;5452176;26;19999;-80
2024/04/18 11:17:50;;;;;;;5.43;1.00;;;;;;;;;;5451782;26;20075;-80
2024/04/18 11:20:16;;;;;;;2.63;0.77;;;;;;;;;;5452271;26;20013;-80
2024/04/18 11:22:42;;;;;;;2.78;0.95;;;;;;;;;;5451850;26;20010;-81
2024/04/18 11:25:08;;;;;;;3.05;0.60;;;;;;;;;;5451664;26;20003;-81
2024/04/18 11:27:38;;;;;;;1.27;0.50;;;;;;;;;;5453538;26;19999;-81
2024/04/18 11:30:06;;;;;;;2.58;0.95;;;;;;;;;;5453539;26;20014;-81
2024/04/18 11:32:32;;;;;;;2.80;0.80;;;;;;;;;;5454000;26;19999;-81
2024/04/18 11:34:58;;;;;;;3.33;0.90;;;;;;;;;;5451455;26;20010;-81
2024/04/18 11:37:24;;;;;;;5.35;1.02;;;;;;;;;;5451722;26;20002;-80
2024/04/18 11:39:50;;;;;;;4.60;0.70;;;;;;;;;;5451338;26;20003;-81
2024/04/18 11:42:16;;;;;;;3.50;0.70;;;;;;;;;;5451731;26;20009;-81
2024/04/18 11:44:44;;;;;;;2.95;0.88;;;;;;;;;;5451547;26;20323;-81
2024/04/18 11:47:10;;;;;;;3.50;0.70;;;;;;;;;;5451071;26;20003;-81
2024/04/18 11:49:36;;;;;;;3.53;0.80;;;;;;;;;;5450963;26;20017;-81
2024/04/18 11:52:03;;;;;;;7.97;1.30;;;;;;;;;;5451505;26;20013;-81
2024/04/18 11:54:29;;;;;;;4.78;0.75;;;;;;;;;;5452003;26;20438;-81
2024/04/18 11:56:55;;;;;;;5.97;1.35;;;;;;;;;;5451208;26;20014;-82
2024/04/18 11:59:22;;;;;;;3.15;0.80;;;;;;;;;;5451453;26;20035;-82
2024/04/18 12:01:48;;;;;;;5.88;0.80;;;;;;;;;;5453086;26;20010;-81
2024/04/18 12:04:19;;;;;;;5.47;0.98;;;;;;;;;;5453374;26;19999;-81
2024/04/18 12:06:46;;;;;;;4.30;0.90;;;;;;;;;;5451758;26;20002;-82
2024/04/18 12:09:12;;;;;;;3.08;0.88;;;;;;;;;;5452938;26;20007;-82
2024/04/18 12:11:38;;;;;;;2.17;0.60;;;;;;;;;;5453287;26;20295;-81
2024/04/18 12:14:04;;;;;;;4.88;0.93;;;;;;;;;;5451223;26;20023;-81
2024/04/18 12:16:30;;;;;;;3.65;0.82;;;;;;;;;;5451330;26;19999;-80
2024/04/18 12:18:56;;;;;;;3.42;0.80;;;;;;;;;;5451108;26;20315;-81
2024/04/18 12:21:22;;;;;;;2.42;0.50;;;;;;;;;;5420749;26;20066;-82
2024/04/18 12:23:48;;;;;;;2.70;0.82;;;;;;;;;;5453362;26;20002;-82
2024/04/18 12:26:14;;;;;;;2.75;1.02;;;;;;;;;;5453320;26;19999;-82
2024/04/18 12:28:40;;;;;;;3.58;0.63;;;;;;;;;;5451199;26;20010;-81
2024/04/18 12:31:06;;;;;;;4.60;0.82;;;;;;;;;;5451037;26;20071;-81
2024/04/18 12:33:32;;;;;;;5.75;0.65;;;;;;;;;;5452829;26;20014;-82
2024/04/18 12:35:58;;;;;;;1.80;0.43;;;;;;;;;;5450785;26;20029;-81
2024/04/18 12:38:24;;;;;;;3.17;0.50;;;;;;;;;;5450979;26;20003;-82
2024/04/18 12:40:50;;;;;;;4.88;0.85;;;;;;;;;;5451034;26;20331;-82
2024/04/18 12:43:17;;;;;;;3.28;0.77;;;;;;;;;;5451265;26;20015;-81
2024/04/18 12:45:43;;;;;;;3.72;0.75;;;;;;;;;;5450889;26;20301;-80
2024/04/18 12:48:09;;;;;;;4.28;0.80;;;;;;;;;;5450685;26;20003;-81
2024/04/18 12:50:35;;;;;;;4.32;0.90;;;;;;;;;;5450871;26;20010;-81
2024/04/18 12:53:01;;;;;;;4.50;0.90;;;;;;;;;;5450094;26;20354;-81
2024/04/18 12:55:27;;;;;;;2.58;0.80;;;;;;;;;;5421174;26;20318;-82
2024/04/18 12:57:55;;;;;;;6.00;1.10;;;;;;;;;;5450542;26;20003;-79
2024/04/18 13:00:21;;;;;;;3.75;0.70;;;;;;;;;;5453127;26;19999;-81
2024/04/18 13:02:47;;;;;;;2.55;0.90;;;;;;;;;;5450813;26;20019;-80
2024/04/18 13:05:13;;;;;;;6.63;1.02;;;;;;;;;;5450635;26;20002;-80
2024/04/18 13:07:39;;;;;;;3.92;0.73;;;;;;;;;;5450526;26;20010;-80
2024/04/18 13:10:06;;;;;;;4.75;0.65;;;;;;;;;;5450312;26;20011;-80
2024/04/18 13:12:32;;;;;;;6.50;1.42;;;;;;;;;;5450179;26;20011;-81
2024/04/18 13:14:58;;;;;;;4.50;1.08;;;;;;;;;;5451728;26;20013;-81
2024/04/18 13:17:24;;;;;;;5.07;1.58;;;;;;;;;;5450970;26;20430;-80
2024/04/18 13:19:51;;;;;;;4.85;1.13;;;;;;;;;;5449889;26;20013;-80
2024/04/18 13:22:17;;;;;;;3.88;0.98;;;;;;;;;;5449894;26;19999;-80
2024/04/18 13:24:46;;;;;;;4.45;1.08;;;;;;;;;;5451770;26;20039;-81
2024/04/18 13:27:13;;;;;;;4.15;1.00;;;;;;;;;;5449338;26;20017;-81
2024/04/18 13:29:39;;;;;;;3.47;0.88;;;;;;;;;;5449754;26;20009;-80
2024/04/18 13:32:05;;;;;;;4.30;1.27;;;;;;;;;;5449395;26;20002;-80
2024/04/18 13:34:32;;;;;;;2.97;1.00;;;;;;;;;;5449766;26;20002;-80
2024/04/18 13:36:58;;;;;;;3.92;0.85;;;;;;;;;;5451395;26;20003;-81
2024/04/18 13:39:24;;;;;;;6.20;1.30;;;;;;;;;;5451863;26;20035;-81
2024/04/18 13:41:50;;;;;;;3.15;0.80;;;;;;;;;;5451791;26;20013;-81
2024/04/18 13:44:16;;;;;;;7.13;1.20;;;;;;;;;;5451554;26;20067;-80
2024/04/18 13:46:46;;;;;;;5.13;0.75;;;;;;;;;;5450111;26;20006;-81
2024/04/18 13:49:12;;;;;;;4.47;0.95;;;;;;;;;;5449352;26;19999;-81
2024/04/18 13:51:38;;;;;;;2.20;0.60;;;;;;;;;;5451039;26;20010;-81
2024/04/18 13:54:04;;;;;;;2.97;0.82;;;;;;;;;;5449561;26;19999;-79
2024/04/18 13:56:30;;;;;;;5.80;1.38;;;;;;;;;;5451292;26;20076;-79
2024/04/18 13:58:56;;;;;;;6.00;0.90;;;;;;;;;;5450810;26;20002;-80
2024/04/18 14:01:22;;;;;;;6.47;0.93;;;;;;;;;;5449271;26;20018;-80
2024/04/18 14:03:48;;;;;;;5.60;1.02;;;;;;;;;;5451095;26;20881;-80
2024/04/18 14:06:14;;;;;;;7.80;1.23;;;;;;;;;;5449039;26;19999;-80
2024/04/18 14:08:41;;;;;;;3.92;0.85;;;;;;;;;;5449005;26;20023;-79
2024/04/18 14:11:07;;;;;;;4.72;0.70;;;;;;;;;;5449005;26;20010;-79
2024/04/18 14:13:33;;;;;;;3.90;0.90;;;;;;;;;;5449005;26;20071;-79
2024/04/18 14:18:50;;;;;;;5.82;1.50;;;;;;;;;;5450764;26;20014;-80
2024/04/18 14:21:17;;;;;;;3.80;1.00;;;;;;;;;;5448883;26;20013;-80
2024/04/18 14:23:43;;;;;;;2.42;0.60;;;;;;;;;;5450644;26;20473;-81
2024/04/18 14:26:09;;;;;;;3.33;1.15;;;;;;;;;;5450452;26;20003;-80
2024/04/18 14:28:35;;;;;;;4.30;1.63;;;;;;;;;;5448953;26;20076;-80
2024/04/18 14:31:01;;;;;;;3.60;1.00;;;;;;;;;;5450382;26;20423;-80
2024/04/18 14:33:27;;;;;;;4.30;1.20;;;;;;;;;;5450696;26;20241;-80
2024/04/18 14:35:53;;;;;;;3.72;0.60;;;;;;;;;;5448464;26;20006;-81
2024/04/18 14:38:20;;;;;;;3.63;0.80;;;;;;;;;;5448947;26;20010;-80
2024/04/18 14:40:52;;;;;;;2.45;0.68;;;;;;;;;;5448888;26;20496;-80
2024/04/18 14:43:22;;;;;;;4.90;1.20;;;;;;;;;;5450806;26;20003;-79